sensor_id;sensor_type;location;lat;lon;timestamp;temperature;humidity
70851;DHT22;58475;49.662;9.636;2023-07-29T00:00:25;17.44;96.71
70851;DHT22;58475;49.662;9.636;2023-07-29T00:02:53;17.41;96.59
70851;DHT22;58475;49.662;9.636;2023-07-29T00:05:18;17.39;96.58
70851;DHT22;58475;49.662;9.636;2023-07-29T00:07:43;17.27;96.86
70851;DHT22;58475;49.662;9.636;2023-07-29T00:10:09;17.32;96.97
70851;DHT22;58475;49.662;9.636;2023-07-29T00:12:34;17.28;96.85
70851;DHT22;58475;49.662;9.636;2023-07-29T00:15:00;17.41;96.80
70851;DHT22;58475;49.662;9.636;2023-07-29T00:17:25;17.39;96.89
70851;DHT22;58475;49.662;9.636;2023-07-29T00:19:51;17.42;96.86
70851;DHT22;58475;49.662;9.636;2023-07-29T00:22:16;17.35;96.97
70851;DHT22;58475;49.662;9.636;2023-07-29T00:24:42;17.35;96.61
70851;DHT22;58475;49.662;9.636;2023-07-29T00:27:07;17.26;96.79
70851;DHT22;58475;49.662;9.636;2023-07-29T00:29:32;17.27;96.49
70851;DHT22;58475;49.662;9.636;2023-07-29T00:31:58;16.97;97.26
70851;DHT22;58475;49.662;9.636;2023-07-29T00:34:23;17.13;96.90
70851;DHT22;58475;49.662;9.636;2023-07-29T00:36:48;17.16;97.09
70851;DHT22;58475;49.662;9.636;2023-07-29T00:39:14;17.17;96.85
70851;DHT22;58475;49.662;9.636;2023-07-29T00:41:39;17.21;97.11
70851;DHT22;58475;49.662;9.636;2023-07-29T00:44:05;17.27;96.93
70851;DHT22;58475;49.662;9.636;2023-07-29T00:46:33;17.20;97.19
70851;DHT22;58475;49.662;9.636;2023-07-29T00:48:58;17.35;96.93
70851;DHT22;58475;49.662;9.636;2023-07-29T00:51:24;17.37;97.16
70851;DHT22;58475;49.662;9.636;2023-07-29T00:53:49;17.38;97.27
70851;DHT22;58475;49.662;9.636;2023-07-29T00:56:15;17.39;97.33
70851;DHT22;58475;49.662;9.636;2023-07-29T00:58:40;17.31;97.64
70851;DHT22;58475;49.662;9.636;2023-07-29T01:01:06;17.39;97.43
70851;DHT22;58475;49.662;9.636;2023-07-29T01:03:31;17.35;97.76
70851;DHT22;58475;49.662;9.636;2023-07-29T01:08:37;17.39;97.28
70851;DHT22;58475;49.662;9.636;2023-07-29T01:11:16;17.44;97.27
70851;DHT22;58475;49.662;9.636;2023-07-29T01:13:53;17.28;97.40
70851;DHT22;58475;49.662;9.636;2023-07-29T01:16:42;17.27;97.20
70851;DHT22;58475;49.662;9.636;2023-07-29T01:20:07;17.27;97.53
70851;DHT22;58475;49.662;9.636;2023-07-29T01:22:05;17.23;97.97
70851;DHT22;58475;49.662;9.636;2023-07-29T01:24:32;17.24;97.86
70851;DHT22;58475;49.662;9.636;2023-07-29T01:26:57;17.27;97.65
70851;DHT22;58475;49.662;9.636;2023-07-29T01:29:22;17.31;97.67
70851;DHT22;58475;49.662;9.636;2023-07-29T01:31:52;17.37;97.56
70851;DHT22;58475;49.662;9.636;2023-07-29T01:34:26;17.38;97.35
70851;DHT22;58475;49.662;9.636;2023-07-29T01:36:54;17.44;97.51
70851;DHT22;58475;49.662;9.636;2023-07-29T01:39:23;17.37;97.73
70851;DHT22;58475;49.662;9.636;2023-07-29T01:41:51;17.44;97.80
70851;DHT22;58475;49.662;9.636;2023-07-29T01:44:18;17.45;97.65
70851;DHT22;58475;49.662;9.636;2023-07-29T01:46:44;17.47;97.49
70851;DHT22;58475;49.662;9.636;2023-07-29T01:49:09;17.37;97.72
70851;DHT22;58475;49.662;9.636;2023-07-29T01:51:34;17.47;97.50
70851;DHT22;58475;49.662;9.636;2023-07-29T01:54:00;17.54;97.51
70851;DHT22;58475;49.662;9.636;2023-07-29T01:56:26;17.58;97.36
70851;DHT22;58475;49.662;9.636;2023-07-29T01:58:54;17.64;97.11
70851;DHT22;58475;49.662;9.636;2023-07-29T02:01:20;17.68;97.08
70851;DHT22;58475;49.662;9.636;2023-07-29T02:03:45;17.62;97.13
70851;DHT22;58475;49.662;9.636;2023-07-29T02:06:10;17.64;97.09
70851;DHT22;58475;49.662;9.636;2023-07-29T02:08:37;17.56;97.10
70851;DHT22;58475;49.662;9.636;2023-07-29T02:11:03;17.39;97.50
70851;DHT22;58475;49.662;9.636;2023-07-29T02:13:29;17.37;97.49
70851;DHT22;58475;49.662;9.636;2023-07-29T02:15:55;17.45;97.47
70851;DHT22;58475;49.662;9.636;2023-07-29T02:18:20;17.52;97.17
70851;DHT22;58475;49.662;9.636;2023-07-29T02:20:46;17.52;97.22
70851;DHT22;58475;49.662;9.636;2023-07-29T02:23:15;17.59;97.14
70851;DHT22;58475;49.662;9.636;2023-07-29T02:25:41;17.64;97.06
70851;DHT22;58475;49.662;9.636;2023-07-29T02:28:06;17.65;97.01
70851;DHT22;58475;49.662;9.636;2023-07-29T02:30:32;17.66;96.85
70851;DHT22;58475;49.662;9.636;2023-07-29T02:32:57;17.69;96.87
70851;DHT22;58475;49.662;9.636;2023-07-29T02:35:22;17.71;96.89
70851;DHT22;58475;49.662;9.636;2023-07-29T02:37:48;17.74;96.84
70851;DHT22;58475;49.662;9.636;2023-07-29T02:40:13;17.69;96.85
70851;DHT22;58475;49.662;9.636;2023-07-29T02:42:39;17.74;96.87
70851;DHT22;58475;49.662;9.636;2023-07-29T02:45:04;17.75;96.81
70851;DHT22;58475;49.662;9.636;2023-07-29T02:47:30;17.75;96.72
70851;DHT22;58475;49.662;9.636;2023-07-29T02:49:55;17.76;96.76
70851;DHT22;58475;49.662;9.636;2023-07-29T02:52:21;17.79;96.76
70851;DHT22;58475;49.662;9.636;2023-07-29T02:54:46;17.81;97.03
70851;DHT22;58475;49.662;9.636;2023-07-29T02:57:13;17.81;97.15
70851;DHT22;58475;49.662;9.636;2023-07-29T02:59:38;17.71;97.56
70851;DHT22;58475;49.662;9.636;2023-07-29T03:02:04;17.71;97.38
70851;DHT22;58475;49.662;9.636;2023-07-29T03:04:29;17.68;97.72
70851;DHT22;58475;49.662;9.636;2023-07-29T03:06:55;17.54;98.46
70851;DHT22;58475;49.662;9.636;2023-07-29T03:09:20;17.49;98.92
70851;DHT22;58475;49.662;9.636;2023-07-29T03:11:45;17.52;98.71
70851;DHT22;58475;49.662;9.636;2023-07-29T03:14:11;17.54;98.62
70851;DHT22;58475;49.662;9.636;2023-07-29T03:16:37;17.54;98.50
70851;DHT22;58475;49.662;9.636;2023-07-29T03:19:03;17.55;98.61
70851;DHT22;58475;49.662;9.636;2023-07-29T03:21:28;17.56;98.38
70851;DHT22;58475;49.662;9.636;2023-07-29T03:23:53;17.45;98.72
70851;DHT22;58475;49.662;9.636;2023-07-29T03:26:19;17.38;99.05
70851;DHT22;58475;49.662;9.636;2023-07-29T03:28:44;17.39;98.65
70851;DHT22;58475;49.662;9.636;2023-07-29T03:31:10;17.48;98.42
70851;DHT22;58475;49.662;9.636;2023-07-29T03:33:36;17.52;98.10
70851;DHT22;58475;49.662;9.636;2023-07-29T03:36:02;17.54;98.23
70851;DHT22;58475;49.662;9.636;2023-07-29T03:38:28;17.52;98.55
70851;DHT22;58475;49.662;9.636;2023-07-29T03:40:53;17.48;98.58
70851;DHT22;58475;49.662;9.636;2023-07-29T03:43:19;17.48;99.00
70851;DHT22;58475;49.662;9.636;2023-07-29T03:45:44;17.52;98.97
70851;DHT22;58475;49.662;9.636;2023-07-29T03:48:09;17.44;98.65
70851;DHT22;58475;49.662;9.636;2023-07-29T03:50:35;17.35;99.00
70851;DHT22;58475;49.662;9.636;2023-07-29T03:53:04;17.42;98.97
70851;DHT22;58475;49.662;9.636;2023-07-29T03:55:30;17.44;98.86
70851;DHT22;58475;49.662;9.636;2023-07-29T03:57:59;17.44;98.76
70851;DHT22;58475;49.662;9.636;2023-07-29T04:00:26;17.39;98.54
70851;DHT22;58475;49.662;9.636;2023-07-29T04:02:52;17.39;98.63
70851;DHT22;58475;49.662;9.636;2023-07-29T04:05:18;17.21;98.91
70851;DHT22;58475;49.662;9.636;2023-07-29T04:07:43;17.18;99.04
70851;DHT22;58475;49.662;9.636;2023-07-29T04:10:10;17.24;99.12
70851;DHT22;58475;49.662;9.636;2023-07-29T04:12:36;17.17;99.02
70851;DHT22;58475;49.662;9.636;2023-07-29T04:15:02;17.27;98.91
70851;DHT22;58475;49.662;9.636;2023-07-29T04:17:27;17.24;98.89
70851;DHT22;58475;49.662;9.636;2023-07-29T04:19:53;17.27;98.76
70851;DHT22;58475;49.662;9.636;2023-07-29T04:22:20;17.17;99.00
70851;DHT22;58475;49.662;9.636;2023-07-29T04:24:46;17.13;99.24
70851;DHT22;58475;49.662;9.636;2023-07-29T04:27:12;17.21;98.97
70851;DHT22;58475;49.662;9.636;2023-07-29T04:29:37;17.17;99.06
70851;DHT22;58475;49.662;9.636;2023-07-29T04:32:03;17.16;98.88
70851;DHT22;58475;49.662;9.636;2023-07-29T04:34:29;17.24;98.98
70851;DHT22;58475;49.662;9.636;2023-07-29T04:36:54;17.30;99.04
70851;DHT22;58475;49.662;9.636;2023-07-29T04:39:20;17.26;99.08
70851;DHT22;58475;49.662;9.636;2023-07-29T04:41:45;17.26;98.92
70851;DHT22;58475;49.662;9.636;2023-07-29T04:44:11;17.28;98.68
70851;DHT22;58475;49.662;9.636;2023-07-29T04:46:36;17.30;99.19
70851;DHT22;58475;49.662;9.636;2023-07-29T04:49:02;17.37;98.66
70851;DHT22;58475;49.662;9.636;2023-07-29T04:51:28;17.37;98.44
70851;DHT22;58475;49.662;9.636;2023-07-29T04:53:54;17.38;98.64
70851;DHT22;58475;49.662;9.636;2023-07-29T04:56:19;17.41;98.53
70851;DHT22;58475;49.662;9.636;2023-07-29T04:58:45;17.31;98.81
70851;DHT22;58475;49.662;9.636;2023-07-29T05:01:10;17.39;98.89
70851;DHT22;58475;49.662;9.636;2023-07-29T05:03:35;17.44;98.57
70851;DHT22;58475;49.662;9.636;2023-07-29T05:06:02;17.41;98.82
70851;DHT22;58475;49.662;9.636;2023-07-29T05:08:28;17.47;98.53
70851;DHT22;58475;49.662;9.636;2023-07-29T05:10:54;17.49;98.70
70851;DHT22;58475;49.662;9.636;2023-07-29T05:13:20;17.52;98.62
70851;DHT22;58475;49.662;9.636;2023-07-29T05:15:50;17.55;98.63
70851;DHT22;58475;49.662;9.636;2023-07-29T05:18:16;17.48;98.62
70851;DHT22;58475;49.662;9.636;2023-07-29T05:20:41;17.56;98.51
70851;DHT22;58475;49.662;9.636;2023-07-29T05:23:07;17.59;98.56
70851;DHT22;58475;49.662;9.636;2023-07-29T05:25:32;17.51;98.73
70851;DHT22;58475;49.662;9.636;2023-07-29T05:28:00;17.55;98.93
70851;DHT22;58475;49.662;9.636;2023-07-29T05:30:25;17.66;98.50
70851;DHT22;58475;49.662;9.636;2023-07-29T05:32:52;17.66;98.27
70851;DHT22;58475;49.662;9.636;2023-07-29T05:35:17;17.72;98.51
70851;DHT22;58475;49.662;9.636;2023-07-29T05:37:43;17.76;98.39
70851;DHT22;58475;49.662;9.636;2023-07-29T05:40:08;17.81;98.69
70851;DHT22;58475;49.662;9.636;2023-07-29T05:42:34;17.83;98.48
70851;DHT22;58475;49.662;9.636;2023-07-29T05:45:00;17.81;98.59
70851;DHT22;58475;49.662;9.636;2023-07-29T05:47:25;17.85;98.44
70851;DHT22;58475;49.662;9.636;2023-07-29T05:49:52;17.82;98.76
70851;DHT22;58475;49.662;9.636;2023-07-29T05:52:17;17.86;99.12
70851;DHT22;58475;49.662;9.636;2023-07-29T05:54:43;17.86;98.82
70851;DHT22;58475;49.662;9.636;2023-07-29T05:57:11;17.99;98.13
70851;DHT22;58475;49.662;9.636;2023-07-29T05:59:38;17.96;98.03
70851;DHT22;58475;49.662;9.636;2023-07-29T06:02:03;18.05;97.73
70851;DHT22;58475;49.662;9.636;2023-07-29T06:04:29;18.05;97.67
70851;DHT22;58475;49.662;9.636;2023-07-29T06:06:54;18.02;97.89
70851;DHT22;58475;49.662;9.636;2023-07-29T06:09:22;18.02;97.62
70851;DHT22;58475;49.662;9.636;2023-07-29T06:11:47;18.06;97.55
70851;DHT22;58475;49.662;9.636;2023-07-29T06:14:13;18.06;97.62
70851;DHT22;58475;49.662;9.636;2023-07-29T06:16:40;18.03;97.67
70851;DHT22;58475;49.662;9.636;2023-07-29T06:19:05;18.09;97.60
70851;DHT22;58475;49.662;9.636;2023-07-29T06:21:31;18.07;97.75
70851;DHT22;58475;49.662;9.636;2023-07-29T06:23:56;18.00;97.85
70851;DHT22;58475;49.662;9.636;2023-07-29T06:26:22;18.03;97.80
70851;DHT22;58475;49.662;9.636;2023-07-29T06:28:47;18.03;98.32
70851;DHT22;58475;49.662;9.636;2023-07-29T06:31:12;18.00;98.26
70851;DHT22;58475;49.662;9.636;2023-07-29T06:33:38;18.03;98.40
70851;DHT22;58475;49.662;9.636;2023-07-29T06:36:03;18.06;98.41
70851;DHT22;58475;49.662;9.636;2023-07-29T06:38:29;18.12;98.20
70851;DHT22;58475;49.662;9.636;2023-07-29T06:40:54;18.20;98.83
70851;DHT22;58475;49.662;9.636;2023-07-29T06:43:19;18.18;98.45
70851;DHT22;58475;49.662;9.636;2023-07-29T06:45:45;18.14;98.68
70851;DHT22;58475;49.662;9.636;2023-07-29T06:48:10;18.05;99.15
70851;DHT22;58475;49.662;9.636;2023-07-29T06:50:36;18.12;99.27
70851;DHT22;58475;49.662;9.636;2023-07-29T06:53:01;18.13;98.70
70851;DHT22;58475;49.662;9.636;2023-07-29T06:55:26;18.14;98.68
70851;DHT22;58475;49.662;9.636;2023-07-29T06:57:52;18.13;98.49
70851;DHT22;58475;49.662;9.636;2023-07-29T07:00:17;18.10;98.75
70851;DHT22;58475;49.662;9.636;2023-07-29T07:02:43;18.09;98.62
70851;DHT22;58475;49.662;9.636;2023-07-29T07:05:08;18.12;98.55
70851;DHT22;58475;49.662;9.636;2023-07-29T07:07:34;18.16;98.43
70851;DHT22;58475;49.662;9.636;2023-07-29T07:09:59;18.09;98.62
70851;DHT22;58475;49.662;9.636;2023-07-29T07:12:25;18.16;98.80
70851;DHT22;58475;49.662;9.636;2023-07-29T07:14:50;18.24;98.94
70851;DHT22;58475;49.662;9.636;2023-07-29T07:17:16;18.36;98.60
70851;DHT22;58475;49.662;9.636;2023-07-29T07:19:41;18.44;98.26
70851;DHT22;58475;49.662;9.636;2023-07-29T07:22:06;18.43;98.53
70851;DHT22;58475;49.662;9.636;2023-07-29T07:24:32;18.48;98.71
70851;DHT22;58475;49.662;9.636;2023-07-29T07:26:57;18.65;98.60
70851;DHT22;58475;49.662;9.636;2023-07-29T07:29:23;18.74;98.60
70851;DHT22;58475;49.662;9.636;2023-07-29T07:31:53;18.81;98.49
70851;DHT22;58475;49.662;9.636;2023-07-29T07:34:20;18.87;98.17
70851;DHT22;58475;49.662;9.636;2023-07-29T07:36:45;19.14;98.21
70851;DHT22;58475;49.662;9.636;2023-07-29T07:39:11;19.20;97.51
70851;DHT22;58475;49.662;9.636;2023-07-29T07:41:36;19.43;96.97
70851;DHT22;58475;49.662;9.636;2023-07-29T07:44:02;19.91;96.26
70851;DHT22;58475;49.662;9.636;2023-07-29T07:46:28;20.34;94.48
70851;DHT22;58475;49.662;9.636;2023-07-29T07:48:53;20.14;93.83
70851;DHT22;58475;49.662;9.636;2023-07-29T07:51:19;20.07;94.05
70851;DHT22;58475;49.662;9.636;2023-07-29T07:53:44;20.08;94.19
70851;DHT22;58475;49.662;9.636;2023-07-29T07:56:10;20.14;92.98
70851;DHT22;58475;49.662;9.636;2023-07-29T07:58:35;20.07;94.52
70851;DHT22;58475;49.662;9.636;2023-07-29T08:01:05;20.05;94.21
70851;DHT22;58475;49.662;9.636;2023-07-29T08:03:31;20.04;94.33
70851;DHT22;58475;49.662;9.636;2023-07-29T08:05:57;20.11;93.90
70851;DHT22;58475;49.662;9.636;2023-07-29T08:08:22;20.52;92.68
70851;DHT22;58475;49.662;9.636;2023-07-29T08:10:47;21.52;92.35
70851;DHT22;58475;49.662;9.636;2023-07-29T08:13:13;22.72;91.07
70851;DHT22;58475;49.662;9.636;2023-07-29T08:15:38;22.53;88.56
70851;DHT22;58475;49.662;9.636;2023-07-29T08:18:03;22.22;88.31
70851;DHT22;58475;49.662;9.636;2023-07-29T08:20:29;22.28;88.36
70851;DHT22;58475;49.662;9.636;2023-07-29T08:22:54;22.09;89.39
70851;DHT22;58475;49.662;9.636;2023-07-29T08:25:19;22.35;88.43
70851;DHT22;58475;49.662;9.636;2023-07-29T08:27:45;21.58;90.82
70851;DHT22;58475;49.662;9.636;2023-07-29T08:30:10;20.93;93.02
70851;DHT22;58475;49.662;9.636;2023-07-29T08:32:36;20.80;94.09
70851;DHT22;58475;49.662;9.636;2023-07-29T08:35:01;20.79;92.81
70851;DHT22;58475;49.662;9.636;2023-07-29T08:37:27;20.83;93.48
70851;DHT22;58475;49.662;9.636;2023-07-29T08:39:52;21.07;93.43
70851;DHT22;58475;49.662;9.636;2023-07-29T08:42:19;21.17;92.72
70851;DHT22;58475;49.662;9.636;2023-07-29T08:44:49;21.37;90.76
70851;DHT22;58475;49.662;9.636;2023-07-29T08:47:14;21.21;88.22
70851;DHT22;58475;49.662;9.636;2023-07-29T08:49:40;21.33;88.67
70851;DHT22;58475;49.662;9.636;2023-07-29T08:52:07;21.58;86.48
70851;DHT22;58475;49.662;9.636;2023-07-29T08:54:35;22.01;87.49
70851;DHT22;58475;49.662;9.636;2023-07-29T08:57:00;21.58;83.20
70851;DHT22;58475;49.662;9.636;2023-07-29T08:59:27;21.77;82.27
70851;DHT22;58475;49.662;9.636;2023-07-29T09:01:54;21.91;81.59
70851;DHT22;58475;49.662;9.636;2023-07-29T09:04:22;22.08;84.95
70851;DHT22;58475;49.662;9.636;2023-07-29T09:06:50;21.98;85.49
70851;DHT22;58475;49.662;9.636;2023-07-29T09:09:16;21.31;86.65
70851;DHT22;58475;49.662;9.636;2023-07-29T09:11:41;20.39;88.87
70851;DHT22;58475;49.662;9.636;2023-07-29T09:14:09;20.51;87.54
70851;DHT22;58475;49.662;9.636;2023-07-29T09:16:35;20.13;88.02
70851;DHT22;58475;49.662;9.636;2023-07-29T09:19:02;20.08;89.04
70851;DHT22;58475;49.662;9.636;2023-07-29T09:21:29;20.21;88.64
70851;DHT22;58475;49.662;9.636;2023-07-29T09:23:55;20.22;89.95
70851;DHT22;58475;49.662;9.636;2023-07-29T09:26:25;20.36;89.53
70851;DHT22;58475;49.662;9.636;2023-07-29T09:28:55;20.45;90.74
70851;DHT22;58475;49.662;9.636;2023-07-29T09:31:23;20.86;90.12
70851;DHT22;58475;49.662;9.636;2023-07-29T09:33:48;21.14;87.66
70851;DHT22;58475;49.662;9.636;2023-07-29T09:36:14;21.19;88.86
70851;DHT22;58475;49.662;9.636;2023-07-29T09:38:40;21.77;88.43
70851;DHT22;58475;49.662;9.636;2023-07-29T09:41:05;22.61;87.67
70851;DHT22;58475;49.662;9.636;2023-07-29T09:43:35;23.19;86.77
70851;DHT22;58475;49.662;9.636;2023-07-29T09:46:01;23.16;88.31
70851;DHT22;58475;49.662;9.636;2023-07-29T09:48:27;22.09;88.19
70851;DHT22;58475;49.662;9.636;2023-07-29T09:50:54;21.98;87.67
70851;DHT22;58475;49.662;9.636;2023-07-29T09:53:20;21.71;87.70
70851;DHT22;58475;49.662;9.636;2023-07-29T09:55:47;21.82;89.39
70851;DHT22;58475;49.662;9.636;2023-07-29T09:58:22;21.81;90.86
70851;DHT22;58475;49.662;9.636;2023-07-29T10:00:51;21.54;90.48
70851;DHT22;58475;49.662;9.636;2023-07-29T10:03:17;21.52;90.55
70851;DHT22;58475;49.662;9.636;2023-07-29T10:05:44;21.40;92.28
70851;DHT22;58475;49.662;9.636;2023-07-29T10:08:10;21.38;89.81
70851;DHT22;58475;49.662;9.636;2023-07-29T10:10:36;21.51;91.04
70851;DHT22;58475;49.662;9.636;2023-07-29T10:13:02;21.65;90.59
70851;DHT22;58475;49.662;9.636;2023-07-29T10:15:29;21.86;89.47
70851;DHT22;58475;49.662;9.636;2023-07-29T10:17:55;22.43;90.61
70851;DHT22;58475;49.662;9.636;2023-07-29T10:20:21;23.29;89.14
70851;DHT22;58475;49.662;9.636;2023-07-29T10:22:47;23.89;84.47
70851;DHT22;58475;49.662;9.636;2023-07-29T10:25:18;24.07;84.33
70851;DHT22;58475;49.662;9.636;2023-07-29T10:27:48;24.04;83.16
70851;DHT22;58475;49.662;9.636;2023-07-29T10:30:14;24.61;83.21
70851;DHT22;58475;49.662;9.636;2023-07-29T10:32:44;24.61;82.00
70851;DHT22;58475;49.662;9.636;2023-07-29T10:35:14;25.19;83.94
70851;DHT22;58475;49.662;9.636;2023-07-29T10:37:40;24.47;81.68
70851;DHT22;58475;49.662;9.636;2023-07-29T10:40:10;24.04;82.81
70851;DHT22;58475;49.662;9.636;2023-07-29T10:42:37;25.03;83.71
70851;DHT22;58475;49.662;9.636;2023-07-29T10:45:21;25.07;81.03
70851;DHT22;58475;49.662;9.636;2023-07-29T10:47:47;25.34;79.21
70851;DHT22;58475;49.662;9.636;2023-07-29T10:50:21;25.13;78.54
70851;DHT22;58475;49.662;9.636;2023-07-29T10:52:51;24.99;76.54
70851;DHT22;58475;49.662;9.636;2023-07-29T10:55:28;25.85;78.05
70851;DHT22;58475;49.662;9.636;2023-07-29T10:58:08;25.71;78.66
70851;DHT22;58475;49.662;9.636;2023-07-29T11:00:33;25.75;77.00
70851;DHT22;58475;49.662;9.636;2023-07-29T11:03:00;25.64;76.68
70851;DHT22;58475;49.662;9.636;2023-07-29T11:05:27;25.75;73.24
70851;DHT22;58475;49.662;9.636;2023-07-29T11:08:23;25.70;74.39
70851;DHT22;58475;49.662;9.636;2023-07-29T11:11:21;25.50;76.55
70851;DHT22;58475;49.662;9.636;2023-07-29T11:13:46;24.83;76.47
70851;DHT22;58475;49.662;9.636;2023-07-29T11:16:16;24.35;75.74
70851;DHT22;58475;49.662;9.636;2023-07-29T11:18:42;24.68;74.35
70851;DHT22;58475;49.662;9.636;2023-07-29T11:21:08;25.85;73.74
70851;DHT22;58475;49.662;9.636;2023-07-29T11:23:35;25.22;74.16
70851;DHT22;58475;49.662;9.636;2023-07-29T11:26:02;26.15;74.88
70851;DHT22;58475;49.662;9.636;2023-07-29T11:28:27;26.56;70.23
70851;DHT22;58475;49.662;9.636;2023-07-29T11:30:57;26.45;71.37
70851;DHT22;58475;49.662;9.636;2023-07-29T11:33:25;26.12;72.25
70851;DHT22;58475;49.662;9.636;2023-07-29T11:35:52;25.95;71.35
70851;DHT22;58475;49.662;9.636;2023-07-29T11:38:18;26.98;72.46
70851;DHT22;58475;49.662;9.636;2023-07-29T11:40:54;27.23;68.70
70851;DHT22;58475;49.662;9.636;2023-07-29T11:43:20;27.20;68.37
70851;DHT22;58475;49.662;9.636;2023-07-29T11:45:45;26.83;67.86
70851;DHT22;58475;49.662;9.636;2023-07-29T11:48:10;27.00;67.40
70851;DHT22;58475;49.662;9.636;2023-07-29T11:50:36;26.08;68.51
70851;DHT22;58475;49.662;9.636;2023-07-29T11:53:02;25.56;69.52
70851;DHT22;58475;49.662;9.636;2023-07-29T11:55:28;26.28;70.07
70851;DHT22;58475;49.662;9.636;2023-07-29T11:57:53;25.92;68.36
70851;DHT22;58475;49.662;9.636;2023-07-29T12:00:20;26.61;68.52
70851;DHT22;58475;49.662;9.636;2023-07-29T12:02:46;26.18;67.59
70851;DHT22;58475;49.662;9.636;2023-07-29T12:05:13;26.05;68.85
70851;DHT22;58475;49.662;9.636;2023-07-29T12:07:39;26.84;67.88
70851;DHT22;58475;49.662;9.636;2023-07-29T12:10:05;26.70;64.96
70851;DHT22;58475;49.662;9.636;2023-07-29T12:12:31;26.02;64.90
70851;DHT22;58475;49.662;9.636;2023-07-29T12:14:57;26.11;67.66
70851;DHT22;58475;49.662;9.636;2023-07-29T12:17:22;25.60;68.72
70851;DHT22;58475;49.662;9.636;2023-07-29T12:19:48;25.24;70.62
70851;DHT22;58475;49.662;9.636;2023-07-29T12:22:18;25.10;70.50
70851;DHT22;58475;49.662;9.636;2023-07-29T12:24:44;24.89;69.32
70851;DHT22;58475;49.662;9.636;2023-07-29T12:27:13;24.99;69.34
70851;DHT22;58475;49.662;9.636;2023-07-29T12:29:43;25.20;69.63
70851;DHT22;58475;49.662;9.636;2023-07-29T12:32:09;25.10;70.67
70851;DHT22;58475;49.662;9.636;2023-07-29T12:34:36;25.15;71.59
70851;DHT22;58475;49.662;9.636;2023-07-29T12:37:03;25.22;71.36
70851;DHT22;58475;49.662;9.636;2023-07-29T12:39:30;25.03;70.01
70851;DHT22;58475;49.662;9.636;2023-07-29T12:41:58;24.69;70.83
70851;DHT22;58475;49.662;9.636;2023-07-29T12:44:25;25.00;71.16
70851;DHT22;58475;49.662;9.636;2023-07-29T12:46:51;24.96;72.14
70851;DHT22;58475;49.662;9.636;2023-07-29T12:49:17;24.41;75.19
70851;DHT22;58475;49.662;9.636;2023-07-29T12:51:43;23.42;81.02
70851;DHT22;58475;49.662;9.636;2023-07-29T12:54:08;22.75;81.66
70851;DHT22;58475;49.662;9.636;2023-07-29T12:56:34;22.16;84.18
70851;DHT22;58475;49.662;9.636;2023-07-29T12:59:01;21.41;87.12
70851;DHT22;58475;49.662;9.636;2023-07-29T13:01:27;21.98;88.25
70851;DHT22;58475;49.662;9.636;2023-07-29T13:03:53;23.00;86.02
70851;DHT22;58475;49.662;9.636;2023-07-29T13:06:18;23.97;87.84
70851;DHT22;58475;49.662;9.636;2023-07-29T13:08:45;24.20;82.05
70851;DHT22;58475;49.662;9.636;2023-07-29T13:11:10;24.62;82.62
70851;DHT22;58475;49.662;9.636;2023-07-29T13:13:36;25.16;79.01
70851;DHT22;58475;49.662;9.636;2023-07-29T13:16:01;24.54;79.52
70851;DHT22;58475;49.662;9.636;2023-07-29T13:18:27;25.50;80.78
70851;DHT22;58475;49.662;9.636;2023-07-29T13:20:53;25.13;79.68
70851;DHT22;58475;49.662;9.636;2023-07-29T13:23:18;25.41;79.64
70851;DHT22;58475;49.662;9.636;2023-07-29T13:25:43;24.83;79.15
70851;DHT22;58475;49.662;9.636;2023-07-29T13:28:10;24.69;78.50
70851;DHT22;58475;49.662;9.636;2023-07-29T13:30:35;25.61;71.69
70851;DHT22;58475;49.662;9.636;2023-07-29T13:33:01;26.42;71.84
70851;DHT22;58475;49.662;9.636;2023-07-29T13:35:27;26.26;68.23
70851;DHT22;58475;49.662;9.636;2023-07-29T13:37:52;26.33;68.95
70851;DHT22;58475;49.662;9.636;2023-07-29T13:40:17;26.46;66.78
70851;DHT22;58475;49.662;9.636;2023-07-29T13:42:43;26.33;67.21
70851;DHT22;58475;49.662;9.636;2023-07-29T13:45:08;26.52;66.86
70851;DHT22;58475;49.662;9.636;2023-07-29T13:47:35;26.11;67.88
70851;DHT22;58475;49.662;9.636;2023-07-29T13:50:01;26.70;66.84
70851;DHT22;58475;49.662;9.636;2023-07-29T13:52:26;27.38;66.44
70851;DHT22;58475;49.662;9.636;2023-07-29T13:54:52;28.07;66.54
70851;DHT22;58475;49.662;9.636;2023-07-29T13:57:17;27.73;63.51
70851;DHT22;58475;49.662;9.636;2023-07-29T13:59:43;26.93;62.14
70851;DHT22;58475;49.662;9.636;2023-07-29T14:02:08;27.12;64.17
70851;DHT22;58475;49.662;9.636;2023-07-29T14:04:34;27.08;64.82
70851;DHT22;58475;49.662;9.636;2023-07-29T14:06:59;27.14;62.96
70851;DHT22;58475;49.662;9.636;2023-07-29T14:09:26;26.86;63.59
70851;DHT22;58475;49.662;9.636;2023-07-29T14:11:51;26.69;63.69
70851;DHT22;58475;49.662;9.636;2023-07-29T14:14:16;26.69;65.44
70851;DHT22;58475;49.662;9.636;2023-07-29T14:16:42;26.77;63.25
70851;DHT22;58475;49.662;9.636;2023-07-29T14:19:07;26.35;62.50
70851;DHT22;58475;49.662;9.636;2023-07-29T14:21:33;25.96;62.90
70851;DHT22;58475;49.662;9.636;2023-07-29T14:23:58;25.58;65.49
70851;DHT22;58475;49.662;9.636;2023-07-29T14:26:24;25.48;67.32
70851;DHT22;58475;49.662;9.636;2023-07-29T14:28:49;25.58;67.54
70851;DHT22;58475;49.662;9.636;2023-07-29T14:31:15;25.37;67.93
70851;DHT22;58475;49.662;9.636;2023-07-29T14:33:43;25.15;68.89
70851;DHT22;58475;49.662;9.636;2023-07-29T14:36:08;24.78;69.81
70851;DHT22;58475;49.662;9.636;2023-07-29T14:38:34;26.02;69.22
70851;DHT22;58475;49.662;9.636;2023-07-29T14:41:00;26.43;67.05
70851;DHT22;58475;49.662;9.636;2023-07-29T14:43:25;27.34;66.00
70851;DHT22;58475;49.662;9.636;2023-07-29T14:45:51;27.54;63.22
70851;DHT22;58475;49.662;9.636;2023-07-29T14:48:16;27.00;63.00
70851;DHT22;58475;49.662;9.636;2023-07-29T14:50:41;26.40;64.14
70851;DHT22;58475;49.662;9.636;2023-07-29T14:53:09;25.75;66.69
70851;DHT22;58475;49.662;9.636;2023-07-29T14:55:35;25.24;68.26
70851;DHT22;58475;49.662;9.636;2023-07-29T14:58:00;25.10;67.63
70851;DHT22;58475;49.662;9.636;2023-07-29T15:00:27;25.10;68.02
70851;DHT22;58475;49.662;9.636;2023-07-29T15:02:52;25.64;66.93
70851;DHT22;58475;49.662;9.636;2023-07-29T15:05:18;26.55;65.93
70851;DHT22;58475;49.662;9.636;2023-07-29T15:07:44;26.70;66.24
70851;DHT22;58475;49.662;9.636;2023-07-29T15:10:09;26.02;66.22
70851;DHT22;58475;49.662;9.636;2023-07-29T15:12:35;25.99;67.07
70851;DHT22;58475;49.662;9.636;2023-07-29T15:15:00;25.80;68.48
70851;DHT22;58475;49.662;9.636;2023-07-29T15:17:25;25.61;67.33
70851;DHT22;58475;49.662;9.636;2023-07-29T15:19:51;25.46;68.38
70851;DHT22;58475;49.662;9.636;2023-07-29T15:22:16;25.46;71.03
70851;DHT22;58475;49.662;9.636;2023-07-29T15:24:45;25.54;69.30
70851;DHT22;58475;49.662;9.636;2023-07-29T15:27:11;25.37;68.32